Time;durP1;ratioP1;P1;durP2;ratioP2;P2;SDS_P1;SDS_P2;PMS_P1;PMS_P2;Temp;Humidity;BMP_temperature;BMP_pressure;BME280_temperature;BME280_humidity;BME280_pressure;Samples;Min_cycle;Max_cycle;Signal;HPM_P1;HPM_P2
2021/04/09 00:02:29;;;;;;;11.07;7.50;;;;;;;;;;10332209;28;20037;-61
2021/04/09 00:07:26;;;;;;;14.83;8.77;;;;;;;;;;10319592;28;20498;-62
2021/04/09 00:12:24;;;;;;;13.37;7.77;;;;;;;;;;10332784;28;20033;-62
2021/04/09 00:17:21;;;;;;;10.67;6.07;;;;;;;;;;10323609;28;20033;-66
2021/04/09 00:22:19;;;;;;;17.30;7.97;;;;;;;;;;10315382;28;20033;-60
2021/04/09 00:27:16;;;;;;;16.13;7.70;;;;;;;;;;10344476;28;20140;-60
2021/04/09 00:32:13;;;;;;;13.23;6.73;;;;;;;;;;10320026;28;20025;-61
2021/04/09 00:37:11;;;;;;;14.27;7.07;;;;;;;;;;10323146;28;20118;-62
2021/04/09 00:42:14;;;;;;;14.53;7.13;;;;;;;;;;10314930;28;20560;-60
2021/04/09 00:47:12;;;;;;;12.23;6.43;;;;;;;;;;10331933;28;20515;-62
2021/04/09 00:52:10;;;;;;;13.60;7.07;;;;;;;;;;10338333;28;20100;-60
2021/04/09 00:57:07;;;;;;;13.67;7.77;;;;;;;;;;10314193;28;20493;-59
2021/04/09 01:02:05;;;;;;;9.07;5.97;;;;;;;;;;10337448;28;20029;-60
2021/04/09 01:07:03;;;;;;;11.17;6.23;;;;;;;;;;10317580;28;20017;-61
2021/04/09 01:12:00;;;;;;;9.50;5.55;;;;;;;;;;10315533;28;20542;-63
2021/04/09 01:17:05;;;;;;;14.90;6.57;;;;;;;;;;10339906;28;20444;-59
2021/04/09 01:22:03;;;;;;;10.23;6.35;;;;;;;;;;10332144;28;20029;-62
2021/04/09 01:27:00;;;;;;;;;;;;;;;;;;10303085;28;20120;-59
2021/04/09 01:31:59;;;;;;;12.32;6.57;;;;;;;;;;10350426;28;19909;-62
2021/04/09 01:37:01;;;;;;;11.75;6.47;;;;;;;;;;10337619;28;20032;-62
2021/04/09 01:42:01;;;;;;;10.63;5.72;;;;;;;;;;10324093;28;20025;-62
2021/04/09 01:46:59;;;;;;;10.18;6.10;;;;;;;;;;10326752;28;20114;-63
2021/04/09 01:51:58;;;;;;;11.23;6.37;;;;;;;;;;10333494;28;20432;-59
2021/04/09 01:56:55;;;;;;;14.88;7.50;;;;;;;;;;10331412;28;20120;-59
2021/04/09 02:01:53;;;;;;;14.03;7.87;;;;;;;;;;10335429;28;20021;-59
2021/04/09 02:06:51;;;;;;;13.60;6.13;;;;;;;;;;10298566;28;20036;-60
2021/04/09 02:11:49;;;;;;;14.07;6.25;;;;;;;;;;10324413;28;20135;-62
2021/04/09 02:16:46;;;;;;;11.83;5.33;;;;;;;;;;10325538;28;20500;-63
2021/04/09 02:21:44;;;;;;;17.97;6.10;;;;;;;;;;10341375;28;20079;-59
2021/04/09 02:26:42;;;;;;;11.20;6.70;;;;;;;;;;10335634;28;20577;-60
2021/04/09 02:31:40;;;;;;;;;;;;;;;;;;10323194;28;20528;-59
2021/04/09 02:36:37;;;;;;;14.35;6.32;;;;;;;;;;10319471;28;19997;-61
2021/04/09 02:41:36;;;;;;;12.50;6.73;;;;;;;;;;10330947;28;20043;-61
2021/04/09 02:46:39;;;;;;;10.90;6.53;;;;;;;;;;10352909;28;20502;-63
2021/04/09 02:51:37;;;;;;;12.63;5.93;;;;;;;;;;10319121;28;20082;-58
2021/04/09 02:56:36;;;;;;;9.98;6.03;;;;;;;;;;10336613;28;20114;-63
2021/04/09 03:01:34;;;;;;;12.48;6.35;;;;;;;;;;10293425;28;20766;-63
2021/04/09 03:06:31;;;;;;;16.37;7.00;;;;;;;;;;10294901;28;20515;-62
2021/04/09 03:11:29;;;;;;;12.73;6.27;;;;;;;;;;10295866;28;20518;-63
2021/04/09 03:16:29;;;;;;;17.70;6.80;;;;;;;;;;10284847;28;20052;-60
2021/04/09 03:21:26;;;;;;;11.85;6.45;;;;;;;;;;10293283;28;21572;-60
2021/04/09 03:26:24;;;;;;;9.43;5.73;;;;;;;;;;10289989;28;20041;-62
2021/04/09 03:31:21;;;;;;;11.00;5.57;;;;;;;;;;10308832;28;20435;-62
2021/04/09 03:36:18;;;;;;;14.07;7.40;;;;;;;;;;10296370;28;20029;-61
2021/04/09 03:41:16;;;;;;;15.40;6.20;;;;;;;;;;10293289;28;20045;-62
2021/04/09 03:46:13;;;;;;;12.40;6.60;;;;;;;;;;10296137;28;20133;-63
2021/04/09 03:51:11;;;;;;;11.40;5.00;;;;;;;;;;10315876;28;20043;-63
2021/04/09 03:56:08;;;;;;;19.50;5.83;;;;;;;;;;10293503;28;20040;-64
2021/04/09 04:01:06;;;;;;;8.97;4.77;;;;;;;;;;10313820;28;20025;-62
2021/04/09 04:06:03;;;;;;;12.07;5.97;;;;;;;;;;10314208;28;20044;-64
2021/04/09 04:11:01;;;;;;;17.57;5.97;;;;;;;;;;10294029;28;20044;-62
2021/04/09 04:15:59;;;;;;;14.85;6.90;;;;;;;;;;10295789;28;20489;-59
2021/04/09 04:20:57;;;;;;;12.90;5.77;;;;;;;;;;10314841;28;20425;-63
2021/04/09 04:25:55;;;;;;;15.23;7.50;;;;;;;;;;10238163;28;20041;-63
2021/04/09 04:30:53;;;;;;;16.73;8.33;;;;;;;;;;10303380;28;20049;-59
2021/04/09 04:35:50;;;;;;;16.88;7.45;;;;;;;;;;10316180;28;20043;-61
2021/04/09 04:40:48;;;;;;;11.43;6.23;;;;;;;;;;10284236;28;20041;-62
2021/04/09 04:45:47;;;;;;;15.90;7.13;;;;;;;;;;10302984;28;20045;-66
2021/04/09 04:50:44;;;;;;;14.38;8.05;;;;;;;;;;10311120;28;20417;-64
2021/04/09 04:55:42;;;;;;;13.40;7.47;;;;;;;;;;10311326;28;20059;-63
2021/04/09 05:00:39;;;;;;;16.17;7.53;;;;;;;;;;10299447;28;20453;-62
2021/04/09 05:05:36;;;;;;;13.30;6.77;;;;;;;;;;10310322;28;21102;-63
2021/04/09 05:10:34;;;;;;;12.60;5.23;;;;;;;;;;10309230;28;20041;-61
2021/04/09 05:15:31;;;;;;;11.93;6.20;;;;;;;;;;10289201;28;20040;-64
2021/04/09 05:20:29;;;;;;;12.73;6.50;;;;;;;;;;10305188;28;20037;-63
2021/04/09 05:25:26;;;;;;;12.10;6.37;;;;;;;;;;10312097;28;20045;-63
2021/04/09 05:30:24;;;;;;;10.97;6.47;;;;;;;;;;10298375;28;20505;-58
2021/04/09 05:35:22;;;;;;;11.57;5.90;;;;;;;;;;10293787;28;20037;-64
2021/04/09 05:40:20;;;;;;;10.50;6.05;;;;;;;;;;10289676;28;20257;-65
2021/04/09 05:45:18;;;;;;;8.23;4.57;;;;;;;;;;10280361;28;20119;-59
2021/04/09 05:50:15;;;;;;;8.83;4.47;;;;;;;;;;10292714;28;20040;-61
2021/04/09 05:55:14;;;;;;;12.70;5.73;;;;;;;;;;10311498;28;20747;-62
2021/04/09 06:00:12;;;;;;;8.07;5.20;;;;;;;;;;10286455;28;20395;-63
2021/04/09 06:05:10;;;;;;;18.50;6.85;;;;;;;;;;10283722;28;20570;-60
2021/04/09 06:10:08;;;;;;;14.17;7.70;;;;;;;;;;10276250;28;20048;-61
2021/04/09 06:15:09;;;;;;;8.97;5.40;;;;;;;;;;10278899;28;20041;-62
2021/04/09 06:20:07;;;;;;;14.45;6.63;;;;;;;;;;10293259;28;20136;-63
2021/04/09 06:25:05;;;;;;;17.27;7.33;;;;;;;;;;10298002;28;20055;-62
2021/04/09 06:30:03;;;;;;;;;;;;;;;;;;10269214;28;20068;-64
2021/04/09 06:35:00;;;;;;;11.00;4.57;;;;;;;;;;10264639;28;19924;-62
2021/04/09 06:39:57;;;;;;;12.27;6.33;;;;;;;;;;10291769;28;20076;-63
2021/04/09 06:44:57;;;;;;;11.40;6.53;;;;;;;;;;10271924;28;20103;-66
2021/04/09 06:49:54;;;;;;;11.95;6.05;;;;;;;;;;10287234;28;20166;-64
2021/04/09 06:54:52;;;;;;;13.10;5.23;;;;;;;;;;10323211;28;20098;-61
2021/04/09 06:59:51;;;;;;;8.23;4.80;;;;;;;;;;10270440;28;20045;-60
2021/04/09 07:04:51;;;;;;;14.23;6.40;;;;;;;;;;10281313;28;20075;-61
2021/04/09 07:09:48;;;;;;;10.63;6.22;;;;;;;;;;10281828;28;20055;-63
2021/04/09 07:14:46;;;;;;;15.07;7.77;;;;;;;;;;10298737;28;20043;-64
2021/04/09 07:19:44;;;;;;;14.60;6.97;;;;;;;;;;10300139;28;20033;-62
2021/04/09 07:24:41;;;;;;;11.70;6.50;;;;;;;;;;10282075;28;20041;-63
2021/04/09 07:29:39;;;;;;;7.80;5.00;;;;;;;;;;10281222;28;20051;-63
2021/04/09 07:34:37;;;;;;;;;;;;;;;;;;10280267;28;20390;-63
2021/04/09 07:39:35;;;;;;;12.35;6.70;;;;;;;;;;10296074;28;19916;-59
2021/04/09 07:44:32;;;;;;;14.80;6.83;;;;;;;;;;10297400;28;20044;-61
2021/04/09 07:49:29;;;;;;;15.10;6.47;;;;;;;;;;10300413;28;20103;-64
2021/04/09 07:54:27;;;;;;;14.23;6.67;;;;;;;;;;10316593;28;20090;-63
2021/04/09 07:59:37;;;;;;;13.87;6.40;;;;;;;;;;10296630;28;20037;-63
2021/04/09 08:04:39;;;;;;;14.38;6.53;;;;;;;;;;10298763;28;20048;-62
2021/04/09 08:09:46;;;;;;;12.27;5.60;;;;;;;;;;10283331;28;20102;-61
2021/04/09 08:14:43;;;;;;;9.77;5.60;;;;;;;;;;10283750;28;20395;-64
2021/04/09 08:19:41;;;;;;;8.00;4.57;;;;;;;;;;10293832;28;20044;-62
2021/04/09 08:24:38;;;;;;;10.03;4.60;;;;;;;;;;10291811;28;20045;-62
2021/04/09 08:29:37;;;;;;;7.73;4.10;;;;;;;;;;10305210;28;20037;-65
2021/04/09 08:34:36;;;;;;;11.55;4.97;;;;;;;;;;10288355;28;20443;-62
2021/04/09 08:39:33;;;;;;;7.03;2.88;;;;;;;;;;10294000;28;20033;-61
2021/04/09 08:44:31;;;;;;;13.40;3.53;;;;;;;;;;10302865;28;20410;-60
2021/04/09 08:49:29;;;;;;;7.80;4.73;;;;;;;;;;10317482;28;21616;-63
2021/04/09 08:54:31;;;;;;;8.57;4.40;;;;;;;;;;10304757;28;20033;-64
2021/04/09 08:59:37;;;;;;;11.27;4.00;;;;;;;;;;10294043;28;20072;-62
2021/04/09 09:04:34;;;;;;;9.05;3.20;;;;;;;;;;10296687;28;20122;-62
2021/04/09 09:09:32;;;;;;;7.43;5.37;;;;;;;;;;10291673;28;20095;-62
2021/04/09 09:14:33;;;;;;;6.63;4.45;;;;;;;;;;10306049;28;20123;-65
2021/04/09 09:19:39;;;;;;;10.98;4.30;;;;;;;;;;10302657;28;20045;-64
2021/04/09 09:24:56;;;;;;;4.28;2.33;;;;;;;;;;10263859;28;20513;-62
2021/04/09 09:29:54;;;;;;;8.68;4.10;;;;;;;;;;10274545;28;20099;-63
2021/04/09 09:34:51;;;;;;;3.23;2.47;;;;;;;;;;10283509;28;20064;-60
2021/04/09 09:39:53;;;;;;;3.97;2.83;;;;;;;;;;10284419;28;20040;-60
2021/04/09 09:44:51;;;;;;;9.10;2.70;;;;;;;;;;10302909;28;20075;-58
2021/04/09 09:50:05;;;;;;;5.28;2.53;;;;;;;;;;10302306;28;20056;-61
2021/04/09 09:55:13;;;;;;;10.10;3.90;;;;;;;;;;10268273;28;20124;-62
2021/04/09 10:00:10;;;;;;;8.33;3.47;;;;;;;;;;10267996;28;20057;-61
2021/04/09 10:05:08;;;;;;;6.90;3.60;;;;;;;;;;10301659;28;20047;-61
2021/04/09 10:10:06;;;;;;;8.10;3.77;;;;;;;;;;10286328;28;20128;-59
2021/04/09 10:15:03;;;;;;;6.90;4.27;;;;;;;;;;10327096;28;20048;-57
2021/04/09 10:20:03;;;;;;;7.80;3.63;;;;;;;;;;10297343;28;20037;-61
2021/04/09 10:25:00;;;;;;;8.60;3.13;;;;;;;;;;10308244;28;20403;-63
2021/04/09 10:29:58;;;;;;;7.50;4.20;;;;;;;;;;10267966;28;20044;-60
2021/04/09 10:34:56;;;;;;;6.53;3.20;;;;;;;;;;10306243;28;20041;-62
2021/04/09 10:39:54;;;;;;;6.07;3.28;;;;;;;;;;10300194;28;20056;-63
2021/04/09 10:44:51;;;;;;;11.50;5.53;;;;;;;;;;10292064;28;20061;-60
2021/04/09 10:49:57;;;;;;;5.70;3.97;;;;;;;;;;10256776;28;20418;-64
2021/04/09 10:55:00;;;;;;;11.13;5.50;;;;;;;;;;10262225;28;20033;-64
2021/04/09 10:59:58;;;;;;;11.52;4.85;;;;;;;;;;10258324;28;20045;-60
2021/04/09 11:04:59;;;;;;;3.30;1.73;;;;;;;;;;10239910;28;20444;-63
2021/04/09 11:09:56;;;;;;;11.02;4.03;;;;;;;;;;10246808;28;20076;-63
2021/04/09 11:15:10;;;;;;;2.50;2.30;;;;;;;;;;10230907;28;20685;-62
2021/04/09 11:20:21;;;;;;;3.47;1.73;;;;;;;;;;10261276;28;20025;-62
2021/04/09 11:25:29;;;;;;;7.03;3.03;;;;;;;;;;10298956;28;20437;-62
2021/04/09 11:30:35;;;;;;;8.70;4.28;;;;;;;;;;10242765;28;20384;-63
2021/04/09 11:35:36;;;;;;;8.10;3.35;;;;;;;;;;10295813;28;20072;-61
2021/04/09 11:40:38;;;;;;;7.30;2.47;;;;;;;;;;10293472;28;20037;-65
2021/04/09 11:45:40;;;;;;;6.30;2.13;;;;;;;;;;10294280;28;21137;-60
2021/04/09 11:50:37;;;;;;;3.70;2.08;;;;;;;;;;10283885;28;20514;-61
2021/04/09 11:55:36;;;;;;;8.33;2.53;;;;;;;;;;10294786;28;20059;-59
2021/04/09 12:00:34;;;;;;;10.70;3.50;;;;;;;;;;10281589;28;20537;-62
2021/04/09 12:05:33;;;;;;;10.98;4.10;;;;;;;;;;10297986;28;20147;-61
2021/04/09 12:10:32;;;;;;;4.43;2.17;;;;;;;;;;10291523;28;20336;-62
2021/04/09 12:15:30;;;;;;;7.63;3.47;;;;;;;;;;10280790;28;20068;-62
2021/04/09 12:20:27;;;;;;;3.70;1.43;;;;;;;;;;10292195;28;20048;-62
2021/04/09 12:25:26;;;;;;;5.97;2.63;;;;;;;;;;10258303;28;20170;-61
2021/04/09 12:30:24;;;;;;;6.63;2.27;;;;;;;;;;10308152;28;20178;-62
2021/04/09 12:35:21;;;;;;;4.27;1.57;;;;;;;;;;10264694;28;20110;-63
2021/04/09 12:40:19;;;;;;;6.87;1.50;;;;;;;;;;10301103;28;20037;-62
2021/04/09 12:45:17;;;;;;;4.73;1.03;;;;;;;;;;10283423;28;20044;-66
2021/04/09 12:50:15;;;;;;;2.83;0.80;;;;;;;;;;10306809;28;20504;-63
2021/04/09 12:55:13;;;;;;;3.23;1.03;;;;;;;;;;10311941;28;20444;-62
2021/04/09 13:00:10;;;;;;;5.93;0.90;;;;;;;;;;10305802;28;20040;-63
2021/04/09 13:05:08;;;;;;;2.43;1.23;;;;;;;;;;10289649;28;20041;-64
2021/04/09 13:10:06;;;;;;;4.77;1.57;;;;;;;;;;10275352;28;20047;-61
2021/04/09 13:15:04;;;;;;;4.20;0.63;;;;;;;;;;10287464;28;20510;-62
2021/04/09 13:20:01;;;;;;;4.20;0.80;;;;;;;;;;10284183;28;20365;-61
2021/04/09 13:24:59;;;;;;;0.67;0.50;;;;;;;;;;10242266;28;20049;-63
2021/04/09 13:29:56;;;;;;;5.63;1.03;;;;;;;;;;10288908;28;20045;-63
2021/04/09 13:34:53;;;;;;;4.33;0.67;;;;;;;;;;10306054;28;20045;-64
2021/04/09 13:39:51;;;;;;;4.60;1.17;;;;;;;;;;10302857;28;20040;-62
2021/04/09 13:44:48;;;;;;;4.33;0.50;;;;;;;;;;10262076;28;20037;-64
2021/04/09 13:49:45;;;;;;;6.50;1.97;;;;;;;;;;10274682;28;20036;-62
2021/04/09 13:54:43;;;;;;;0.50;0.40;;;;;;;;;;10280591;28;20679;-61
2021/04/09 13:59:40;;;;;;;0.80;0.60;;;;;;;;;;10272821;28;20041;-65
2021/04/09 14:04:38;;;;;;;7.17;0.93;;;;;;;;;;10291427;28;20050;-65
2021/04/09 14:09:35;;;;;;;4.80;0.80;;;;;;;;;;10255443;28;20036;-66
2021/04/09 14:14:33;;;;;;;0.93;0.57;;;;;;;;;;10262508;28;20041;-64
2021/04/09 14:19:30;;;;;;;2.67;0.47;;;;;;;;;;10265058;28;20036;-63
2021/04/09 14:24:28;;;;;;;0.63;0.57;;;;;;;;;;10267219;28;20029;-65
2021/04/09 14:29:25;;;;;;;6.30;0.73;;;;;;;;;;10276717;28;20908;-62
2021/04/09 14:34:23;;;;;;;3.40;1.10;;;;;;;;;;10283596;28;20103;-67
2021/04/09 14:39:20;;;;;;;7.73;1.17;;;;;;;;;;10311790;28;20091;-64
2021/04/09 14:44:17;;;;;;;1.73;0.80;;;;;;;;;;10320624;28;20041;-64
2021/04/09 14:49:15;;;;;;;2.47;0.80;;;;;;;;;;10300444;28;20568;-64
2021/04/09 14:54:12;;;;;;;3.37;0.80;;;;;;;;;;10273526;28;20036;-65
2021/04/09 14:59:10;;;;;;;0.23;0.23;;;;;;;;;;10307340;28;20049;-63
2021/04/09 15:04:07;;;;;;;4.40;0.83;;;;;;;;;;10303630;28;20041;-63
2021/04/09 15:09:06;;;;;;;10.10;0.97;;;;;;;;;;10306516;28;20546;-65
2021/04/09 15:14:03;;;;;;;1.40;0.47;;;;;;;;;;10286252;28;20478;-62
2021/04/09 15:19:01;;;;;;;2.50;0.73;;;;;;;;;;10268766;28;20032;-62
2021/04/09 15:23:58;;;;;;;2.53;1.17;;;;;;;;;;10289485;28;20033;-63
2021/04/09 15:28:56;;;;;;;2.87;1.30;;;;;;;;;;10306536;28;20044;-63
2021/04/09 15:33:53;;;;;;;0.67;0.50;;;;;;;;;;10306838;28;20041;-61
2021/04/09 15:38:51;;;;;;;0.87;0.80;;;;;;;;;;10280111;28;20045;-63
2021/04/09 15:43:49;;;;;;;2.77;1.00;;;;;;;;;;10258627;28;20409;-66
2021/04/09 15:48:47;;;;;;;2.00;0.90;;;;;;;;;;10285583;28;20049;-62
2021/04/09 15:53:45;;;;;;;1.52;0.85;;;;;;;;;;10273659;28;20653;-62
2021/04/09 15:58:42;;;;;;;6.90;1.60;;;;;;;;;;10303958;28;20506;-65
2021/04/09 16:03:40;;;;;;;5.93;2.10;;;;;;;;;;10284218;28;20037;-62
2021/04/09 16:08:38;;;;;;;2.33;0.95;;;;;;;;;;10279994;28;20505;-62
2021/04/09 16:13:35;;;;;;;4.93;1.70;;;;;;;;;;10296172;28;20413;-62
2021/04/09 16:18:34;;;;;;;1.10;0.80;;;;;;;;;;10279072;28;20383;-64
2021/04/09 16:23:31;;;;;;;;;;;;;;;;;;10322841;28;20103;-62
2021/04/09 16:28:28;;;;;;;4.75;1.20;;;;;;;;;;10299779;28;19978;-61
2021/04/09 16:33:31;;;;;;;9.93;1.30;;;;;;;;;;10303035;28;20528;-61
2021/04/09 16:38:28;;;;;;;2.00;1.23;;;;;;;;;;10286984;28;20040;-60
2021/04/09 16:43:25;;;;;;;0.83;0.40;;;;;;;;;;10281198;28;20044;-62
2021/04/09 16:48:23;;;;;;;4.20;0.93;;;;;;;;;;10309527;28;20421;-62
2021/04/09 16:53:20;;;;;;;3.67;1.27;;;;;;;;;;10301353;28;20049;-62
2021/04/09 16:58:18;;;;;;;5.07;1.47;;;;;;;;;;10300642;28;20033;-62
2021/04/09 17:03:15;;;;;;;8.40;1.27;;;;;;;;;;10285454;28;20041;-62
2021/04/09 17:08:12;;;;;;;0.97;0.63;;;;;;;;;;10310267;28;20505;-65
2021/04/09 17:13:15;;;;;;;0.50;0.50;;;;;;;;;;10280314;28;20045;-62
2021/04/09 17:18:12;;;;;;;3.03;1.23;;;;;;;;;;10312049;28;20080;-61
2021/04/09 17:23:10;;;;;;;3.93;0.83;;;;;;;;;;10287437;28;20086;-63
2021/04/09 17:28:07;;;;;;;2.33;1.20;;;;;;;;;;10272723;28;20152;-62
2021/04/09 17:33:05;;;;;;;1.33;1.00;;;;;;;;;;10316396;28;20041;-65
2021/04/09 17:38:02;;;;;;;4.60;1.27;;;;;;;;;;10295175;28;20041;-62
2021/04/09 17:43:04;;;;;;;6.93;0.90;;;;;;;;;;10308241;28;20052;-64
2021/04/09 17:48:02;;;;;;;6.80;1.40;;;;;;;;;;10300261;28;20121;-66
2021/04/09 17:53:00;;;;;;;3.70;0.80;;;;;;;;;;10308697;28;20045;-61
2021/04/09 17:57:57;;;;;;;0.93;0.60;;;;;;;;;;10283746;28;20041;-64
2021/04/09 18:02:55;;;;;;;10.07;1.23;;;;;;;;;;10311545;28;20041;-61
2021/04/09 18:07:53;;;;;;;4.57;1.10;;;;;;;;;;10299474;28;20044;-61
2021/04/09 18:12:50;;;;;;;7.00;1.00;;;;;;;;;;10312675;28;20029;-64
2021/04/09 18:17:48;;;;;;;11.50;1.70;;;;;;;;;;10309441;28;20029;-60
2021/04/09 18:22:45;;;;;;;1.23;0.67;;;;;;;;;;10316086;28;20031;-60
2021/04/09 18:27:43;;;;;;;4.10;1.40;;;;;;;;;;10303578;28;20198;-60
2021/04/09 18:32:41;;;;;;;2.53;1.00;;;;;;;;;;10304495;28;20064;-63
2021/04/09 18:37:38;;;;;;;5.13;0.97;;;;;;;;;;10273008;28;20033;-61
2021/04/09 18:42:36;;;;;;;2.80;1.83;;;;;;;;;;10282721;28;20086;-60
2021/04/09 18:47:33;;;;;;;7.13;1.60;;;;;;;;;;10298872;28;20040;-62
2021/04/09 18:52:31;;;;;;;6.80;2.20;;;;;;;;;;10309115;28;20025;-62
2021/04/09 18:57:28;;;;;;;3.67;2.13;;;;;;;;;;10305789;28;20513;-63
2021/04/09 19:02:26;;;;;;;3.53;1.43;;;;;;;;;;10291687;28;20031;-67
2021/04/09 19:07:24;;;;;;;6.53;2.00;;;;;;;;;;10285960;28;20310;-64
2021/04/09 19:12:22;;;;;;;6.82;1.73;;;;;;;;;;10309496;28;20269;-63
2021/04/09 19:17:22;;;;;;;2.73;1.43;;;;;;;;;;10255595;28;20037;-66
2021/04/09 19:22:21;;;;;;;4.43;1.75;;;;;;;;;;10300273;28;20048;-62
2021/04/09 19:27:20;;;;;;;3.53;1.63;;;;;;;;;;10308777;28;20052;-65
2021/04/09 19:32:17;;;;;;;7.65;1.65;;;;;;;;;;10290685;28;20028;-62
2021/04/09 19:37:15;;;;;;;7.43;2.07;;;;;;;;;;10295858;28;20255;-62
2021/04/09 19:42:12;;;;;;;4.47;2.27;;;;;;;;;;10309181;28;20033;-62
2021/04/09 19:47:09;;;;;;;4.70;1.87;;;;;;;;;;10313505;22;20052;-62
2021/04/09 19:52:07;;;;;;;6.00;1.97;;;;;;;;;;10324122;28;20036;-62
2021/04/09 19:57:05;;;;;;;6.27;2.13;;;;;;;;;;10290063;28;20052;-61
2021/04/09 20:02:02;;;;;;;5.87;2.00;;;;;;;;;;10300598;28;20033;-62
2021/04/09 20:06:59;;;;;;;14.37;4.17;;;;;;;;;;10292122;28;20044;-62
2021/04/09 20:11:57;;;;;;;41.77;13.03;;;;;;;;;;10285366;28;20686;-62
2021/04/09 20:16:56;;;;;;;29.20;10.10;;;;;;;;;;10312309;28;20090;-62
2021/04/09 20:21:53;;;;;;;22.70;9.35;;;;;;;;;;10260447;23;20575;-66
2021/04/09 20:26:51;;;;;;;30.47;10.77;;;;;;;;;;10266054;28;21147;-65
2021/04/09 20:31:48;;;;;;;35.97;12.77;;;;;;;;;;10266409;28;20636;-66
2021/04/09 20:36:46;;;;;;;57.60;21.10;;;;;;;;;;10246522;28;20053;-65
2021/04/09 20:41:43;;;;;;;39.90;20.40;;;;;;;;;;10266724;28;20088;-65
2021/04/09 20:46:40;;;;;;;35.47;21.77;;;;;;;;;;10260653;28;20121;-66
2021/04/09 20:51:38;;;;;;;35.60;18.10;;;;;;;;;;10281262;28;20046;-66
2021/04/09 20:56:35;;;;;;;33.70;17.17;;;;;;;;;;10284036;28;20030;-65
2021/04/09 21:01:33;;;;;;;25.30;13.90;;;;;;;;;;10264231;28;20046;-64
2021/04/09 21:06:30;;;;;;;18.80;12.03;;;;;;;;;;10294941;28;20124;-65
2021/04/09 21:11:28;;;;;;;20.50;10.33;;;;;;;;;;10299212;28;20054;-66
2021/04/09 21:16:25;;;;;;;17.53;9.93;;;;;;;;;;10273753;28;20030;-65
2021/04/09 21:21:23;;;;;;;19.43;8.93;;;;;;;;;;10281509;28;20060;-65
2021/04/09 21:26:20;;;;;;;16.17;7.10;;;;;;;;;;10292453;28;20414;-64
2021/04/09 21:31:18;;;;;;;11.87;6.47;;;;;;;;;;10291017;28;20042;-65
2021/04/09 21:36:15;;;;;;;10.00;4.77;;;;;;;;;;10300181;28;20026;-65
2021/04/09 21:41:13;;;;;;;14.20;5.87;;;;;;;;;;10277506;28;20105;-67
2021/04/09 21:46:13;;;;;;;7.83;4.03;;;;;;;;;;10233023;28;20133;-66
2021/04/09 21:51:10;;;;;;;3.63;1.17;;;;;;;;;;10268635;28;20407;-65
2021/04/09 21:56:08;;;;;;;9.10;1.57;;;;;;;;;;10272887;28;20038;-66
2021/04/09 22:01:05;;;;;;;4.03;0.97;;;;;;;;;;10280888;28;20041;-66
2021/04/09 22:06:02;;;;;;;1.73;0.93;;;;;;;;;;10267708;28;20110;-66
2021/04/09 22:11:00;;;;;;;5.23;0.97;;;;;;;;;;10288669;28;20041;-65
2021/04/09 22:15:58;;;;;;;7.28;1.92;;;;;;;;;;10280959;28;20084;-66
2021/04/09 22:20:55;;;;;;;1.37;0.80;;;;;;;;;;10286577;28;20048;-65
2021/04/09 22:25:52;;;;;;;7.33;1.03;;;;;;;;;;10279855;28;20044;-64
2021/04/09 22:30:50;;;;;;;1.87;1.57;;;;;;;;;;10285349;28;20132;-66
2021/04/09 22:35:48;;;;;;;1.10;0.70;;;;;;;;;;10306554;28;20079;-65
2021/04/09 22:40:46;;;;;;;2.77;1.37;;;;;;;;;;10253462;28;20037;-66
2021/04/09 22:45:43;;;;;;;4.22;0.90;;;;;;;;;;10270732;28;20048;-65
2021/04/09 22:50:40;;;;;;;4.20;1.37;;;;;;;;;;10280808;28;20121;-66
2021/04/09 22:55:39;;;;;;;3.57;1.13;;;;;;;;;;10292590;28;20041;-64
2021/04/09 23:00:36;;;;;;;7.17;0.87;;;;;;;;;;10279810;28;20056;-66
2021/04/09 23:05:33;;;;;;;13.20;1.50;;;;;;;;;;10267882;28;20307;-66
2021/04/09 23:10:31;;;;;;;1.90;1.07;;;;;;;;;;10282686;28;20037;-64
2021/04/09 23:15:28;;;;;;;0.53;0.33;;;;;;;;;;10288807;28;20092;-65
2021/04/09 23:20:25;;;;;;;1.03;0.97;;;;;;;;;;10285986;28;20087;-66
2021/04/09 23:25:23;;;;;;;11.53;1.33;;;;;;;;;;10285402;28;20037;-65
2021/04/09 23:30:21;;;;;;;5.87;1.00;;;;;;;;;;10277410;28;20037;-64
2021/04/09 23:35:19;;;;;;;;;;;;;;;;;;10279862;28;20041;-65
2021/04/09 23:40:16;;;;;;;3.85;1.05;;;;;;;;;;10258980;28;20391;-66
2021/04/09 23:45:14;;;;;;;0.73;0.30;;;;;;;;;;10276490;28;20042;-65
2021/04/09 23:50:11;;;;;;;1.60;0.43;;;;;;;;;;10261221;28;20045;-66
2021/04/09 23:55:09;;;;;;;4.43;0.93;;;;;;;;;;10284181;28;20030;-64
